Station History

Weather Underground - logo

Station Historical Data
Daily Summary for August 17, 2017 Units:  English    Metric   Both
« Previous Day
Next Day »
Daily Weekly Monthly Yearly Custom
  High: Low: Average:
Temperature: 94.9 °F 66.3 °F 80.8 °F
Dew Point: 68.7 °F 61.1 °F 64.7 °F
Humidity: 84 % 37 % 61 %
Wind Speed: 6.9 mph 0.0 mph 1.2 mph
Wind Gust: 6.9 mph - -
Wind:- - SW
Pressure: 29.93 in 29.81 in -
Precipitation: 0.00 in    
Historical Graphs
 
 
Tabular Data for August 17, 2017
Time Temperature Dew Point Pressure Wind Wind Speed Wind Gust Humidity Rainfall Rate (Hourly)
00:00 73.8 °F 64.6 °F 29.86 in Calm     73 % 0.00 in
00:05 73.7 °F 64.5 °F 29.86 in Calm     73 % 0.00 in
00:10 73.6 °F 64.8 °F 29.86 in Calm     74 % 0.00 in
00:15 73.4 °F 64.6 °F 29.86 in Calm     74 % 0.00 in
00:20 73.2 °F 64.4 °F 29.86 in Calm     74 % 0.00 in
00:25 73.0 °F 63.8 °F 29.86 in Calm     73 % 0.00 in
00:30 72.8 °F 63.6 °F 29.86 in Calm     73 % 0.00 in
00:35 72.7 °F 63.9 °F 29.86 in Calm     74 % 0.00 in
00:39 72.6 °F 64.2 °F 29.86 in Calm     75 % 0.00 in
00:44 72.6 °F 64.6 °F 29.86 in Calm     76 % 0.00 in
00:49 72.5 °F 63.7 °F 29.86 in Calm     74 % 0.00 in
00:54 72.2 °F 63.8 °F 29.86 in Calm     75 % 0.00 in
00:59 72.0 °F 64.8 °F 29.86 in Calm     78 % 0.00 in
01:04 71.8 °F 64.9 °F 29.86 in Calm     79 % 0.00 in
01:09 71.7 °F 65.2 °F 29.86 in Calm     80 % 0.00 in
01:14 71.6 °F 65.1 °F 29.86 in Calm     80 % 0.00 in
01:19 71.4 °F 65.6 °F 29.86 in Calm     82 % 0.00 in
01:24 71.2 °F 65.1 °F 29.86 in Calm     81 % 0.00 in
01:29 71.0 °F 65.2 °F 29.86 in Calm     82 % 0.00 in
01:34 70.8 °F 65.0 °F 29.86 in Calm     82 % 0.00 in
01:39 70.7 °F 64.9 °F 29.86 in Calm     82 % 0.00 in
01:44 70.5 °F 64.7 °F 29.86 in Calm     82 % 0.00 in
01:49 70.3 °F 64.5 °F 29.86 in Calm     82 % 0.00 in
01:54 70.2 °F 64.8 °F 29.86 in Calm     83 % 0.00 in
01:59 70.2 °F 64.4 °F 29.86 in Calm     82 % 0.00 in
02:05 70.1 °F 64.0 °F 29.86 in Calm     81 % 0.00 in
02:09 70.0 °F 63.9 °F 29.86 in Calm     81 % 0.00 in
02:15 69.9 °F 63.8 °F 29.86 in Calm     81 % 0.00 in
02:20 69.8 °F 63.7 °F 29.86 in Calm     81 % 0.00 in
02:25 69.7 °F 64.0 °F 29.86 in Calm     82 % 0.00 in
02:30 69.5 °F 63.8 °F 29.87 in Calm     82 % 0.00 in
02:35 69.1 °F 63.7 °F 29.87 in SE 1.2 mph   83 % 0.00 in
02:40 68.8 °F 63.4 °F 29.87 in Calm     83 % 0.00 in
02:45 68.8 °F 63.8 °F 29.87 in Calm     84 % 0.00 in
02:50 68.6 °F 63.6 °F 29.87 in Calm     84 % 0.00 in
02:55 68.6 °F 63.2 °F 29.87 in Calm     83 % 0.00 in
03:00 68.6 °F 63.6 °F 29.87 in Calm     84 % 0.00 in
03:05 68.5 °F 63.1 °F 29.87 in Calm     83 % 0.00 in
03:10 68.7 °F 63.3 °F 29.87 in Calm     83 % 0.00 in
03:15 68.9 °F 63.2 °F 29.87 in SE 1.2 mph   82 % 0.00 in
03:20 69.1 °F 63.0 °F 29.87 in ESE 1.2 mph   81 % 0.00 in
03:25 69.1 °F 63.0 °F 29.87 in ESE 1.2 mph   81 % 0.00 in
03:30 68.9 °F 62.5 °F 29.87 in Calm     80 % 0.00 in
03:35 68.7 °F 62.3 °F 29.87 in Calm     80 % 0.00 in
03:40 68.5 °F 62.4 °F 29.87 in Calm     81 % 0.00 in
03:45 68.3 °F 62.6 °F 29.87 in Calm     82 % 0.00 in
03:50 68.1 °F 62.0 °F 29.87 in Calm     81 % 0.00 in
03:55 68.1 °F 62.0 °F 29.87 in Calm     81 % 0.00 in
04:00 68.0 °F 61.9 °F 29.87 in Calm     81 % 0.00 in
04:05 68.0 °F 61.9 °F 29.87 in Calm     81 % 0.00 in
04:10 68.0 °F 61.9 °F 29.87 in Calm     81 % 0.00 in
04:15 67.9 °F 61.9 °F 29.87 in Calm     81 % 0.00 in
04:20 68.1 °F 62.0 °F 29.87 in Calm     81 % 0.00 in
04:26 68.2 °F 62.1 °F 29.87 in Calm     81 % 0.00 in
04:31 68.3 °F 61.9 °F 29.86 in Calm     80 % 0.00 in
04:36 68.3 °F 61.9 °F 29.87 in Calm     80 % 0.00 in
04:41 68.3 °F 61.9 °F 29.87 in Calm     80 % 0.00 in
04:46 68.2 °F 62.1 °F 29.86 in Calm     81 % 0.00 in
04:51 68.0 °F 61.6 °F 29.87 in Calm     80 % 0.00 in
04:56 67.7 °F 61.7 °F 29.87 in Calm     81 % 0.00 in
05:01 67.5 °F 61.8 °F 29.87 in Calm     82 % 0.00 in
05:06 67.4 °F 61.7 °F 29.87 in Calm     82 % 0.00 in
05:11 67.2 °F 61.5 °F 29.87 in Calm     82 % 0.00 in
05:12 67.2 °F 61.5 °F 29.87 in Calm     82 % 0.00 in
05:17 67.3 °F 61.6 °F 29.87 in Calm     82 % 0.00 in
05:22 67.3 °F 61.6 °F 29.87 in Calm     82 % 0.00 in
05:27 67.3 °F 61.6 °F 29.88 in Calm     82 % 0.00 in
05:32 67.3 °F 61.6 °F 29.88 in Calm     82 % 0.00 in
05:37 67.1 °F 61.4 °F 29.88 in Calm     82 % 0.00 in
05:42 67.1 °F 61.4 °F 29.88 in Calm     82 % 0.00 in
05:47 66.9 °F 61.6 °F 29.88 in Calm     83 % 0.00 in
05:52 66.8 °F 61.5 °F 29.89 in Calm     83 % 0.00 in
05:57 66.7 °F 61.4 °F 29.89 in Calm     83 % 0.00 in
06:02 66.6 °F 61.3 °F 29.89 in Calm     83 % 0.00 in
06:07 66.6 °F 61.3 °F 29.89 in Calm     83 % 0.00 in
06:08 66.6 °F 61.6 °F 29.89 in Calm     84 % 0.00 in
06:13 66.6 °F 61.6 °F 29.90 in Calm     84 % 0.00 in
06:18 66.5 °F 61.2 °F 29.90 in Calm     83 % 0.00 in
06:23 66.5 °F 61.5 °F 29.90 in Calm     84 % 0.00 in
06:28 66.4 °F 61.4 °F 29.90 in Calm     84 % 0.00 in
06:33 66.3 °F 61.3 °F 29.90 in Calm     84 % 0.00 in
06:38 66.3 °F 61.3 °F 29.90 in Calm     84 % 0.00 in
06:39 66.3 °F 61.3 °F 29.90 in Calm     84 % 0.00 in
06:44 66.3 °F 61.3 °F 29.90 in Calm     84 % 0.00 in
06:49 66.3 °F 61.3 °F 29.91 in Calm     84 % 0.00 in
06:54 66.4 °F 61.1 °F 29.91 in Calm     83 % 0.00 in
06:59 66.6 °F 61.3 °F 29.91 in Calm     83 % 0.00 in
07:04 66.8 °F 61.1 °F 29.91 in Calm     82 % 0.00 in
07:09 67.1 °F 61.4 °F 29.91 in Calm     82 % 0.00 in
07:14 67.4 °F 61.4 °F 29.91 in Calm     81 % 0.00 in
07:19 67.9 °F 61.9 °F 29.92 in ESE 1.2 mph 1.2 mph 81 % 0.00 in
07:24 68.2 °F 61.8 °F 29.92 in ESE 1.2 mph 1.2 mph 80 % 0.00 in
07:29 68.6 °F 61.8 °F 29.92 in Calm     79 % 0.00 in
07:34 69.3 °F 61.8 °F 29.92 in Calm     77 % 0.00 in
07:39 70.2 °F 62.3 °F 29.92 in Calm     76 % 0.00 in
07:44 70.9 °F 62.2 °F 29.92 in SE 1.2 mph 1.2 mph 74 % 0.00 in
07:49 71.7 °F 62.6 °F 29.92 in SSE 1.2 mph 1.2 mph 73 % 0.00 in
07:54 72.4 °F 62.9 °F 29.92 in ESE 1.2 mph   72 % 0.00 in
07:59 72.9 °F 62.9 °F 29.92 in South 1.2 mph   71 % 0.00 in
08:04 73.6 °F 62.8 °F 29.93 in SE 2.3 mph 2.3 mph 69 % 0.00 in
08:09 73.8 °F 63.0 °F 29.93 in East 1.2 mph 1.2 mph 69 % 0.00 in
08:14 74.6 °F 63.8 °F 29.93 in SSW 2.3 mph 2.3 mph 69 % 0.00 in
08:19 75.0 °F 63.3 °F 29.93 in SE 1.2 mph 1.2 mph 67 % 0.00 in
08:24 75.1 °F 63.0 °F 29.93 in ESE 2.3 mph 2.3 mph 66 % 0.00 in
08:29 75.6 °F 62.6 °F 29.93 in South 2.3 mph 2.3 mph 64 % 0.00 in
08:34 76.1 °F 63.0 °F 29.93 in SE 1.2 mph 1.2 mph 64 % 0.00 in
08:39 76.5 °F 63.0 °F 29.93 in ESE 2.3 mph 2.3 mph 63 % 0.00 in
08:44 76.8 °F 63.7 °F 29.93 in SSE 1.2 mph 1.2 mph 64 % 0.00 in
08:49 77.3 °F 64.2 °F 29.93 in SSE 2.3 mph 2.3 mph 64 % 0.00 in
08:54 77.9 °F 63.4 °F 29.93 in South 2.3 mph 2.3 mph 61 % 0.00 in
08:59 78.5 °F 63.5 °F 29.93 in South 3.5 mph 3.5 mph 60 % 0.00 in
09:04 78.6 °F 63.6 °F 29.93 in ENE 3.5 mph 3.5 mph 60 % 0.00 in
09:09 78.7 °F 63.6 °F 29.93 in SE 2.3 mph 2.3 mph 60 % 0.00 in
09:14 79.2 °F 63.6 °F 29.93 in SE 2.3 mph 2.3 mph 59 % 0.00 in
09:19 79.4 °F 63.3 °F 29.93 in East 2.3 mph 2.3 mph 58 % 0.00 in
09:24 79.9 °F 63.8 °F 29.93 in ESE 3.5 mph 3.5 mph 58 % 0.00 in
09:29 80.6 °F 64.0 °F 29.93 in SE 3.5 mph 3.5 mph 57 % 0.00 in
09:34 80.8 °F 64.1 °F 29.93 in ENE 2.3 mph 2.3 mph 57 % 0.00 in
09:39 81.2 °F 65.0 °F 29.93 in SE 4.0 mph 4.0 mph 58 % 0.00 in
09:44 81.6 °F 64.4 °F 29.93 in East 2.3 mph 2.3 mph 56 % 0.00 in
09:49 81.7 °F 64.0 °F 29.93 in East 3.5 mph 3.5 mph 55 % 0.00 in
09:54 82.1 °F 64.8 °F 29.93 in Calm   0.2 mph 56 % 0.00 in
09:59 82.7 °F 65.4 °F 29.93 in SSW 3.5 mph 3.5 mph 56 % 0.00 in
10:04 83.0 °F 65.2 °F 29.93 in South 3.5 mph 3.5 mph 55 % 0.00 in
10:09 83.6 °F 65.2 °F 29.93 in East 3.0 mph 3.0 mph 54 % 0.00 in
10:14 83.7 °F 65.3 °F 29.93 in SE 6.9 mph 6.9 mph 54 % 0.00 in
10:19 83.8 °F 64.8 °F 29.93 in SE 3.5 mph 3.5 mph 53 % 0.00 in
10:24 84.0 °F 64.5 °F 29.93 in SW 2.3 mph 2.3 mph 52 % 0.00 in
10:29 84.4 °F 64.9 °F 29.93 in North 2.3 mph 2.3 mph 52 % 0.00 in
10:34 84.6 °F 65.0 °F 29.93 in East 3.5 mph 3.5 mph 52 % 0.00 in
10:39 84.5 °F 63.8 °F 29.93 in West 2.3 mph 2.3 mph 50 % 0.00 in
10:44 84.5 °F 64.9 °F 29.93 in SE 2.3 mph 2.3 mph 52 % 0.00 in
10:45 84.5 °F 64.4 °F 29.93 in SSE 3.5 mph 3.5 mph 51 % 0.00 in
10:50 84.8 °F 65.8 °F 29.93 in NNE 2.3 mph 2.3 mph 53 % 0.00 in
10:55 85.2 °F 65.6 °F 29.93 in SE 1.2 mph 1.2 mph 52 % 0.00 in
11:00 85.4 °F 65.8 °F 29.93 in SSE 1.2 mph 1.2 mph 52 % 0.00 in
11:05 85.5 °F 65.9 °F 29.93 in WSW 1.2 mph   52 % 0.00 in
11:10 85.7 °F 67.1 °F 29.93 in SE 3.0 mph 3.0 mph 54 % 0.00 in
11:15 86.1 °F 65.9 °F 29.92 in SSW 2.3 mph 2.3 mph 51 % 0.00 in
11:20 86.4 °F 66.1 °F 29.92 in West 2.3 mph 2.3 mph 51 % 0.00 in
11:25 86.2 °F 63.6 °F 29.92 in WNW 2.3 mph 2.3 mph 47 % 0.00 in
11:30 86.6 °F 64.6 °F 29.92 in WNW 2.0 mph 2.0 mph 48 % 0.00 in
11:35 87.2 °F 65.7 °F 29.92 in WNW 2.3 mph 2.3 mph 49 % 0.00 in
11:40 87.5 °F 67.7 °F 29.92 in Calm     52 % 0.00 in
11:45 87.9 °F 66.9 °F 29.92 in WNW 3.5 mph 3.5 mph 50 % 0.00 in
11:50 87.9 °F 66.4 °F 29.92 in NW 2.3 mph 2.3 mph 49 % 0.00 in
11:55 88.2 °F 65.4 °F 29.92 in NNW 1.2 mph 1.2 mph 47 % 0.00 in
12:00 88.5 °F 65.1 °F 29.92 in NNW 2.3 mph 2.3 mph 46 % 0.00 in
12:05 88.8 °F 66.0 °F 29.92 in WNW 1.2 mph 1.2 mph 47 % 0.00 in
12:11 89.7 °F 66.8 °F 29.92 in South 1.2 mph 1.2 mph 47 % 0.00 in
12:16 89.9 °F 66.3 °F 29.91 in Calm   0.5 mph 46 % 0.00 in
12:21 90.2 °F 66.0 °F 29.91 in NW 2.3 mph 2.3 mph 45 % 0.00 in
12:26 89.6 °F 66.1 °F 29.91 in Calm     46 % 0.00 in
12:31 89.9 °F 67.0 °F 29.91 in West 2.3 mph 2.3 mph 47 % 0.00 in
12:36 90.8 °F 66.5 °F 29.91 in East 2.3 mph 2.3 mph 45 % 0.00 in
12:41 90.7 °F 63.1 °F 29.90 in NNW 1.2 mph 1.2 mph 40 % 0.00 in
12:46 90.8 °F 65.9 °F 29.90 in Calm     44 % 0.00 in
12:51 91.2 °F 65.6 °F 29.90 in NNW 2.3 mph 2.3 mph 43 % 0.00 in
12:56 91.6 °F 67.3 °F 29.90 in SE 1.2 mph 1.2 mph 45 % 0.00 in
12:57 91.5 °F 65.8 °F 29.90 in NW 2.3 mph 2.3 mph 43 % 0.00 in
13:02 91.5 °F 66.5 °F 29.90 in SSE 2.3 mph 2.3 mph 44 % 0.00 in
13:07 91.6 °F 67.3 °F 29.90 in NW 2.3 mph 2.3 mph 45 % 0.00 in
13:12 91.7 °F 65.4 °F 29.89 in West 2.3 mph 2.3 mph 42 % 0.00 in
13:17 92.0 °F 66.3 °F 29.89 in NW 3.5 mph 3.5 mph 43 % 0.00 in
13:22 91.5 °F 65.2 °F 29.89 in NW 2.3 mph 2.3 mph 42 % 0.00 in
13:27 91.2 °F 64.2 °F 29.89 in WNW 2.3 mph 2.3 mph 41 % 0.00 in
13:32 91.9 °F 65.5 °F 29.89 in West 2.3 mph 2.3 mph 42 % 0.00 in
13:37 92.0 °F 65.6 °F 29.89 in NW 1.2 mph 1.2 mph 42 % 0.00 in
13:42 92.7 °F 66.2 °F 29.88 in NNE 1.2 mph   42 % 0.00 in
13:47 93.5 °F 64.8 °F 29.88 in SW 1.2 mph 1.2 mph 39 % 0.00 in
13:52 93.3 °F 64.7 °F 29.88 in WNW 2.3 mph 2.3 mph 39 % 0.00 in
13:57 93.3 °F 63.9 °F 29.88 in West 3.5 mph 3.5 mph 38 % 0.00 in
14:02 93.1 °F 65.2 °F 29.88 in NW 1.2 mph 1.2 mph 40 % 0.00 in
14:07 93.3 °F 63.9 °F 29.88 in West 3.5 mph 3.5 mph 38 % 0.00 in
14:12 93.2 °F 64.6 °F 29.87 in NW 2.0 mph 2.0 mph 39 % 0.00 in
14:17 92.8 °F 64.2 °F 29.87 in NNW 2.3 mph 2.3 mph 39 % 0.00 in
14:22 93.1 °F 65.2 °F 29.87 in North 1.2 mph 1.2 mph 40 % 0.00 in
14:27 93.7 °F 65.0 °F 29.86 in NW 3.5 mph 3.5 mph 39 % 0.00 in
14:33 93.4 °F 64.7 °F 29.86 in NW 2.3 mph 2.3 mph 39 % 0.00 in
14:38 93.6 °F 64.9 °F 29.86 in NE 2.3 mph 2.3 mph 39 % 0.00 in
14:43 93.5 °F 64.8 °F 29.86 in WNW 3.5 mph 3.5 mph 39 % 0.00 in
14:48 93.4 °F 64.7 °F 29.86 in NW 1.2 mph 1.2 mph 39 % 0.00 in
14:53 93.9 °F 64.4 °F 29.86 in WNW 3.5 mph 3.5 mph 38 % 0.00 in
14:58 94.3 °F 65.5 °F 29.85 in NNW 2.3 mph 2.3 mph 39 % 0.00 in
15:03 94.5 °F 65.7 °F 29.85 in Calm     39 % 0.00 in
15:08 94.9 °F 64.6 °F 29.85 in NNW 2.3 mph 2.3 mph 37 % 0.00 in
15:13 94.4 °F 65.6 °F 29.85 in NW 2.3 mph 2.3 mph 39 % 0.00 in
15:17 94.3 °F 64.0 °F 29.85 in ENE 2.0 mph 2.0 mph 37 % 0.00 in
15:22 93.8 °F 63.6 °F 29.85 in NNW 3.5 mph 3.5 mph 37 % 0.00 in
15:27 94.2 °F 65.4 °F 29.84 in NNE 3.5 mph 3.5 mph 39 % 0.00 in
15:32 94.3 °F 65.5 °F 29.84 in NNW 3.5 mph 3.5 mph 39 % 0.00 in
15:37 94.1 °F 64.6 °F 29.84 in NW 4.6 mph 4.6 mph 38 % 0.00 in
15:38 94.1 °F 64.6 °F 29.84 in NW 2.3 mph 2.3 mph 38 % 0.00 in
15:43 94.0 °F 64.5 °F 29.84 in NW 3.5 mph 3.5 mph 38 % 0.00 in
15:48 93.8 °F 64.3 °F 29.84 in NW 3.5 mph 3.5 mph 38 % 0.00 in
15:53 93.6 °F 64.2 °F 29.84 in NNW 4.6 mph 4.6 mph 38 % 0.00 in
15:58 93.6 °F 65.6 °F 29.83 in NW 3.5 mph 3.5 mph 40 % 0.00 in
16:03 94.0 °F 63.8 °F 29.83 in NW 1.2 mph 1.2 mph 37 % 0.00 in
16:08 94.1 °F 64.6 °F 29.83 in NW 3.5 mph 3.5 mph 38 % 0.00 in
16:13 93.8 °F 64.3 °F 29.83 in WNW 3.5 mph 3.5 mph 38 % 0.00 in
16:18 93.7 °F 64.3 °F 29.83 in NNW 4.0 mph 4.0 mph 38 % 0.00 in
16:23 93.7 °F 64.3 °F 29.83 in West 4.0 mph 4.0 mph 38 % 0.00 in
16:28 93.9 °F 63.7 °F 29.82 in WNW 3.5 mph 3.5 mph 37 % 0.00 in
16:33 93.9 °F 63.7 °F 29.82 in WNW 1.2 mph 1.2 mph 37 % 0.00 in
16:38 94.1 °F 63.9 °F 29.82 in NNE 3.5 mph 3.5 mph 37 % 0.00 in
16:43 93.8 °F 63.6 °F 29.82 in NW 3.5 mph 3.5 mph 37 % 0.00 in
16:48 93.9 °F 64.4 °F 29.82 in WNW 3.5 mph 3.5 mph 38 % 0.00 in
16:53 94.0 °F 64.5 °F 29.82 in NW 2.3 mph 2.3 mph 38 % 0.00 in
16:58 93.9 °F 63.7 °F 29.81 in NW 3.5 mph 3.5 mph 37 % 0.00 in
17:03 93.9 °F 64.4 °F 29.82 in West 1.2 mph 1.2 mph 38 % 0.00 in
17:08 94.2 °F 64.7 °F 29.81 in NNW 3.5 mph 3.5 mph 38 % 0.00 in
17:13 94.1 °F 64.6 °F 29.81 in WNW 2.3 mph 2.3 mph 38 % 0.00 in
17:18 94.0 °F 66.0 °F 29.81 in NW 4.6 mph 4.6 mph 40 % 0.00 in
17:23 94.1 °F 65.4 °F 29.81 in WNW 2.3 mph 2.3 mph 39 % 0.00 in
17:28 94.1 °F 65.4 °F 29.81 in NW 3.5 mph 3.5 mph 39 % 0.00 in
17:33 94.3 °F 65.5 °F 29.81 in NW 2.3 mph 2.3 mph 39 % 0.00 in
17:38 94.0 °F 65.3 °F 29.81 in NW 3.5 mph 3.5 mph 39 % 0.00 in
17:43 93.9 °F 65.2 °F 29.81 in WNW 2.3 mph 2.3 mph 39 % 0.00 in
17:48 93.9 °F 65.9 °F 29.81 in NW 2.3 mph 2.3 mph 40 % 0.00 in
17:53 94.0 °F 65.3 °F 29.81 in NW 2.3 mph 2.3 mph 39 % 0.00 in
17:58 93.9 °F 65.2 °F 29.81 in West 3.5 mph 3.5 mph 39 % 0.00 in
18:03 93.7 °F 64.3 °F 29.81 in WNW 3.5 mph 3.5 mph 38 % 0.00 in
18:08 93.8 °F 65.1 °F 29.81 in WNW 3.5 mph 3.5 mph 39 % 0.00 in
18:13 93.8 °F 65.8 °F 29.81 in NW 2.3 mph 2.3 mph 40 % 0.00 in
18:18 93.5 °F 65.6 °F 29.81 in NW 2.3 mph 2.3 mph 40 % 0.00 in
18:23 93.2 °F 65.3 °F 29.81 in WNW 2.3 mph 2.3 mph 40 % 0.00 in
18:28 92.9 °F 65.7 °F 29.81 in WNW 2.3 mph 2.3 mph 41 % 0.00 in
18:33 92.8 °F 66.3 °F 29.81 in WNW 2.3 mph 2.3 mph 42 % 0.00 in
18:39 92.4 °F 65.3 °F 29.81 in NW 3.5 mph 3.5 mph 41 % 0.00 in
18:44 91.9 °F 65.5 °F 29.81 in NW 1.2 mph 1.2 mph 42 % 0.00 in
18:49 91.5 °F 65.2 °F 29.81 in NW 1.2 mph 1.2 mph 42 % 0.00 in
18:54 91.2 °F 65.6 °F 29.81 in NW 1.2 mph 1.2 mph 43 % 0.00 in
18:59 90.9 °F 66.0 °F 29.81 in WNW 1.2 mph 1.2 mph 44 % 0.00 in
19:04 90.6 °F 65.0 °F 29.81 in WNW 2.3 mph 2.3 mph 43 % 0.00 in
19:09 90.3 °F 65.4 °F 29.81 in Calm     44 % 0.00 in
19:14 89.9 °F 65.7 °F 29.81 in Calm     45 % 0.00 in
19:19 89.6 °F 66.1 °F 29.81 in Calm     46 % 0.00 in
19:24 89.3 °F 66.4 °F 29.81 in Calm     47 % 0.00 in
19:29 88.9 °F 66.7 °F 29.81 in Calm     48 % 0.00 in
19:34 88.4 °F 66.8 °F 29.82 in Calm     49 % 0.00 in
19:39 87.9 °F 66.4 °F 29.82 in Calm     49 % 0.00 in
19:44 87.5 °F 67.7 °F 29.82 in Calm     52 % 0.00 in
19:49 87.1 °F 67.3 °F 29.82 in Calm     52 % 0.00 in
19:54 86.7 °F 67.5 °F 29.82 in Calm     53 % 0.00 in
19:59 86.1 °F 68.6 °F 29.82 in Calm     56 % 0.00 in
20:04 85.6 °F 68.6 °F 29.82 in Calm     57 % 0.00 in
20:09 85.1 °F 68.7 °F 29.82 in Calm     58 % 0.00 in
20:16 84.4 °F 68.0 °F 29.83 in Calm     58 % 0.00 in
20:18 84.3 °F 68.4 °F 29.83 in Calm     59 % 0.00 in
20:21 84.1 °F 68.2 °F 29.83 in Calm     59 % 0.00 in
20:22 84.1 °F 67.7 °F 29.83 in Calm     58 % 0.00 in
20:26 84.0 °F 68.1 °F 29.83 in Calm     59 % 0.00 in
20:27 83.9 °F 67.5 °F 29.83 in Calm     58 % 0.00 in
20:31 83.9 °F 67.5 °F 29.83 in Calm     58 % 0.00 in
20:36 83.7 °F 67.8 °F 29.83 in Calm     59 % 0.00 in
20:41 83.4 °F 68.1 °F 29.83 in Calm     60 % 0.00 in
20:46 83.0 °F 68.2 °F 29.84 in Calm     61 % 0.00 in
20:51 82.3 °F 67.5 °F 29.84 in Calm     61 % 0.00 in
20:56 82.0 °F 68.2 °F 29.84 in Calm     63 % 0.00 in
21:01 81.8 °F 68.0 °F 29.84 in Calm     63 % 0.00 in
21:06 81.8 °F 67.5 °F 29.84 in Calm     62 % 0.00 in
21:11 81.7 °F 67.4 °F 29.84 in Calm     62 % 0.00 in
21:17 81.5 °F 67.7 °F 29.84 in Calm     63 % 0.00 in
21:22 81.3 °F 67.5 °F 29.85 in Calm     63 % 0.00 in
21:27 81.0 °F 68.1 °F 29.85 in Calm     65 % 0.00 in
21:32 80.7 °F 68.3 °F 29.85 in Calm     66 % 0.00 in
21:37 80.6 °F 67.7 °F 29.85 in Calm     65 % 0.00 in
21:42 80.5 °F 68.5 °F 29.85 in Calm     67 % 0.00 in
21:47 80.1 °F 67.7 °F 29.85 in Calm     66 % 0.00 in
21:52 80.0 °F 67.6 °F 29.85 in Calm     66 % 0.00 in
21:57 80.0 °F 67.6 °F 29.86 in Calm     66 % 0.00 in
22:02 79.9 °F 67.5 °F 29.86 in Calm     66 % 0.00 in
22:07 79.8 °F 67.9 °F 29.86 in Calm     67 % 0.00 in
22:12 79.7 °F 67.8 °F 29.86 in SE 1.2 mph 1.2 mph 67 % 0.00 in
22:17 79.8 °F 67.9 °F 29.86 in Calm     67 % 0.00 in
22:22 80.0 °F 67.6 °F 29.86 in SSE 1.2 mph 1.2 mph 66 % 0.00 in
22:27 79.9 °F 67.5 °F 29.86 in SE 1.2 mph 1.2 mph 66 % 0.00 in
22:32 79.9 °F 67.5 °F 29.86 in Calm     66 % 0.00 in
22:37 79.8 °F 67.9 °F 29.86 in Calm     67 % 0.00 in
22:42 79.4 °F 67.5 °F 29.86 in Calm     67 % 0.00 in
22:47 79.2 °F 67.3 °F 29.86 in Calm     67 % 0.00 in
22:52 79.0 °F 67.5 °F 29.86 in Calm     68 % 0.00 in
22:57 78.7 °F 67.2 °F 29.87 in Calm     68 % 0.00 in
23:02 78.4 °F 67.4 °F 29.86 in Calm     69 % 0.00 in
23:07 78.2 °F 67.6 °F 29.87 in Calm     70 % 0.00 in
23:12 77.9 °F 67.3 °F 29.87 in Calm     70 % 0.00 in
23:17 77.7 °F 67.5 °F 29.87 in Calm     71 % 0.00 in
23:22 77.5 °F 67.4 °F 29.87 in Calm     71 % 0.00 in
23:27 77.2 °F 67.1 °F 29.87 in Calm     71 % 0.00 in
23:32 77.0 °F 67.3 °F 29.87 in SE 1.2 mph   72 % 0.00 in
23:37 76.9 °F 67.2 °F 29.87 in Calm     72 % 0.00 in
23:42 76.8 °F 67.5 °F 29.87 in Calm     73 % 0.00 in
23:47 76.6 °F 67.3 °F 29.88 in Calm     73 % 0.00 in
23:52 76.4 °F 67.1 °F 29.88 in SE 1.2 mph   73 % 0.00 in
23:57 76.3 °F 67.0 °F 29.88 in Calm     73 % 0.00 in
Park Place, Exeter, Tulare County, California, USA
Compliments of Weather Underground - 2.75 mb